Weather observations for the past three days for
Fernandina Beach Municipal Airport
Imperial (Metric)
Date Time (edt) Wind (mph) Vis. (mi.) Weather Sky Cond. Temperature (ºF) Relative Humidity Wind Chill (°F) Heat Index (°F) Pressure Precipitation (in)
Air Dwpt 6 hour altimeter (in) sea level (mb) 1 hr 3 hr 6 hr
Max. Min.
07 21:55 NW 7 10.00 Fair CLR 77 69.8 79% 79 29.91 0.0
07 21:35 NW 7 10.00 Fair CLR 78.8 69.8 74% 81 29.91 0.0
07 21:15 W 6 10.00 Fair CLR 78.8 68 70% 81 29.9 0.0
07 20:55 NW 7 10.00 Fair CLR 78.8 68 70% 81 29.9 0.0
07 20:35 NW 5 10.00 Fair CLR 78.8 68 70% 81 29.89 0.0
07 20:15 W 6 10.00 Fair CLR 80.6 68 66% 83 29.89 0.0
07 19:55 NW 6 10.00 Fair CLR 82.4 68 62% 85 29.89 0.0
07 19:35 NW 7 10.00 Fair CLR 82.4 66.2 58% 85 29.89 0.0
07 19:15 W 8 10.00 Fair CLR 84.2 66.2 55% 87 29.88 0.0
07 18:55 W 8 10.00 Fair CLR 84.2 66.2 55% 87 29.87 0.0
07 18:35 W 10 10.00 Fair CLR 86 64.4 49% 87 29.87 0.0
07 18:15 W 12 10.00 Fair CLR 84.2 64.4 51% 86 29.87 0.0
07 17:55 W 14 10.00 Fair CLR 84.2 64.4 51% 86 29.86 0.0
07 17:35 SW 13 10.00 Fair CLR 82.4 64.4 55% 84 29.86 0.0
07 17:15 SW 13 G 21 10.00 Partly Cloudy SCT100 SCT120 84.2 62.6 48% 85 29.86 0.0
07 16:55 SW 13 10.00 Overcast OVC110 82.4 62.6 51% 83 29.86 0.0
07 16:35 SW 15 7.00 Mostly Cloudy SCT100 BKN120 82.4 62.6 51% 83 29.87 0.0
07 16:15 SW 14 7.00 Fair with Haze CLR 82.4 62.6 51% 83 29.9 0.0
07 15:55 W 16 G 21 7.00 Fair CLR 84.2 62.6 48% 85 29.91 0.0
07 15:35 SW 17 G 25 7.00 Fair CLR 82.4 64.4 55% 84 29.9 0.0
07 15:15 SW 22 G 30 7.00 Fair and Breezy CLR 82.4 64.4 55% 84 29.91 0.0
07 14:55 SW 15 G 24 7.00 Fair CLR 82.4 64.4 55% 84 29.93 0.0
07 14:35 W 14 G 21 10.00 Fair CLR 82.4 64.4 55% 84 29.95 0.0
07 14:15 W 18 G 24 7.00 Fair CLR 84.2 64.4 51% 86 29.97 0.0
07 13:55 W 16 G 20 10.00 Fair CLR 82.4 66.2 58% 85 29.98 0.0
07 13:35 W 15 10.00 Fair CLR 80.6 66.2 62% 83 29.99 0.0
07 13:15 W 14 10.00 Fair CLR 80.6 66.2 62% 83 29.98 0.0
07 12:55 W 14 10.00 Fair CLR 80.6 66.2 62% 83 29.99 0.0
07 12:35 NW 16 10.00 Fair CLR 82.4 66.2 58% 85 29.99 0.0
07 12:15 W 16 10.00 Fair CLR 82.4 62.6 51% 83 30 0.0
07 11:55 NW 12 10.00 Fair CLR 82.4 64.4 55% 84 30.01 0.0
07 11:35 W 13 10.00 Fair CLR 82.4 62.6 51% 83 30 0.0
07 11:15 NW 12 10.00 Fair CLR 82.4 64.4 55% 84 30 0.0
07 10:55 SW 7 10.00 Fair CLR 80.6 66.2 62% 83 29.99 0.0
07 10:35 SW 7 10.00 Fair CLR 78.8 68 70% 81 29.98 0.0
07 10:15 SW 6 10.00 Fair CLR 78.8 66.2 65% 81 29.98 0.0
07 09:55 SW 9 10.00 Fair CLR 78.8 68 70% 81 29.98 0.0
07 09:35 SW 7 10.00 Fair CLR 77 66.2 69% 79 29.99 0.0
07 09:15 SW 6 10.00 Fair CLR 75.2 66.2 74% 77 29.99 0.0
07 08:55 SW 6 10.00 Fair CLR 75.2 66.2 74% 77 29.98 0.0
07 08:35 SW 5 10.00 Fair CLR 71.6 64.4 78% 29.99 0.0
07 08:15 NW 5 7.00 Fair CLR 71.6 66.2 83% 29.99 0.0
07 07:55 NW 6 10.00 Fair CLR 69.8 66.2 88% 30 0.0
07 07:35 N 9 10.00 Fair CLR 69.8 64.4 83% 29.99 0.0
07 07:15 NW 6 10.00 Fair CLR 69.8 66.2 88% 29.98 0.0
07 06:55 SW 5 10.00 Fair CLR 69.8 66.2 88% 29.96 0.0
07 06:35 S 6 10.00 Fair CLR 69.8 66.2 88% 29.96 0.0
07 06:15 SW 6 10.00 Fair CLR 69.8 66.2 88% 29.96 0.0
07 05:55 SW 6 10.00 Fair CLR 69.8 66.2 88% 29.96 0.0
07 05:35 S 6 10.00 Fair CLR 71.6 66.2 83% 29.96 0.0
07 05:15 SW 6 10.00 Fair CLR 69.8 64.4 83% 29.96 0.0
07 04:55 SW 6 10.00 Fair CLR 69.8 64.4 83% 29.94 0.0
07 04:35 SW 6 10.00 Fair CLR 69.8 64.4 83% 29.93 0.0
07 04:15 SW 7 10.00 Fair CLR 71.6 64.4 78% 29.92 0.0
07 03:55 S 7 10.00 Fair CLR 73.4 64.4 74% 29.93 0.0
07 03:35 S 8 10.00 Fair CLR 73.4 64.4 74% 29.93 0.0
07 03:15 S 8 10.00 Fair CLR 73.4 64.4 74% 29.94 0.0
07 02:55 S 8 10.00 Fair CLR 73.4 64.4 74% 29.94 0.0
07 02:35 S 8 10.00 Fair CLR 73.4 64.4 74% 29.95 0.0
07 02:15 S 9 10.00 Fair CLR 73.4 62.6 69% 29.97 0.0
07 01:55 S 9 10.00 Fair CLR 73.4 62.6 69% 29.98 0.0
07 01:35 S 9 10.00 Fair CLR 75.2 62.6 65% 77 29.98 0.0
07 01:15 S 9 10.00 Fair CLR 75.2 62.6 65% 77 29.99 0.0
07 00:55 S 12 10.00 Fair CLR 75.2 62.6 65% 77 29.99 0.0
07 00:35 S 14 10.00 Fair CLR 75.2 62.6 65% 77 29.98 0.0
07 00:15 S 12 10.00 Fair CLR 75.2 62.6 65% 77 29.99 0.0
06 23:55 S 9 10.00 Fair CLR 75.2 62.6 65% 77 30 0.0
06 23:15 S 9 10.00 Fair CLR 75.2 62.6 65% 77 30 0.0
06 22:55 S 10 10.00 Fair CLR 75.2 62.6 65% 77 30 0.0
06 22:35 S 8 10.00 Fair CLR 75.2 62.6 65% 77 30 0.0
06 22:15 S 10 10.00 Fair CLR 75.2 62.6 65% 77 29.99 0.0
06 21:55 S 9 10.00 Fair CLR 75.2 64.4 69% 77 29.99 0.0
06 21:35 S 7 10.00 Fair CLR 75.2 64.4 69% 77 30 0.0
06 21:15 S 10 10.00 Fair CLR 77 64.4 65% 79 29.99 0.0
06 20:55 S 10 10.00 Fair CLR 77 66.2 69% 79 29.99 0.0
06 20:35 S 14 10.00 Fair CLR 75.2 68 78% 76 29.98 0.0
06 20:15 S 14 10.00 Fair CLR 75.2 68 78% 76 29.97 0.0
06 19:55 SE 16 G 21 10.00 Fair CLR 75.2 69.8 83% 75 29.97 0.0
06 19:35 SE 15 10.00 Fair CLR 77 69.8 79% 79 29.97 0.0
06 18:55 S 17 G 23 10.00 Fair CLR 78.8 69.8 74% 81 29.97 0.0
06 18:35 SE 18 10.00 Fair CLR 78.8 68 70% 81 29.97 0.0
06 18:15 SE 18 G 25 10.00 Fair CLR 78.8 69.8 74% 81 29.97 0.0
06 17:35 SE 18 10.00 Fair CLR 80.6 69.8 70% 84 29.96 0.0
06 17:15 SE 21 G 26 10.00 Fair and Breezy CLR 78.8 69.8 74% 81 29.97 0.0
06 16:55 SE 20 G 25 10.00 Fair CLR 80.6 71.6 74% 85 29.97 0.0
06 16:35 SE 17 10.00 Fair CLR 80.6 69.8 70% 84 29.98 0.0
06 16:15 SE 17 10.00 Fair CLR 82.4 69.8 66% 86 29.98 0.0
06 15:55 SE 17 G 25 10.00 Fair CLR 80.6 69.8 70% 84 29.99 0.0
06 15:35 SE 20 10.00 Fair CLR 80.6 68 66% 83 29.99 0.0
06 15:15 SE 17 10.00 Fair CLR 80.6 68 66% 83 30 0.0
06 14:55 SE 20 10.00 Fair CLR 82.4 68 62% 85 30.01 0.0
06 14:35 SE 17 10.00 Fair CLR 82.4 68 62% 85 30.02 0.0
06 14:15 SE 16 10.00 Fair CLR 82.4 68 62% 85 30.02 0.0
06 13:55 SE 16 10.00 Fair CLR 82.4 68 62% 85 30.03 0.0
06 13:35 SE 15 10.00 Fair CLR 82.4 66.2 58% 85 30.04 0.0
06 13:15 SE 15 10.00 Fair CLR 82.4 66.2 58% 85 30.04 0.0
06 12:55 S 10 10.00 Fair CLR 86 64.4 49% 87 30.05 0.0
06 12:35 SW 13 10.00 Fair CLR 84.2 64.4 51% 86 30.06 0.0
06 12:15 SW 14 10.00 Fair CLR 84.2 64.4 51% 86 30.06 0.0
06 11:55 SW 14 10.00 Fair CLR 84.2 64.4 51% 86 30.06 0.0
06 11:35 SW 13 10.00 Fair CLR 82.4 62.6 51% 83 30.06 0.0
06 11:15 S 10 10.00 Fair CLR 80.6 62.6 54% 82 30.05 0.0
06 10:55 SW 10 10.00 Fair CLR 82.4 64.4 55% 84 30.05 0.0
06 10:35 S 13 10.00 Fair CLR 80.6 62.6 54% 82 30.05 0.0
06 10:15 S 14 10.00 Fair CLR 78.8 64.4 61% 81 30.05 0.0
06 09:55 S 16 10.00 Fair CLR 78.8 64.4 61% 81 30.05 0.0
06 09:35 S 13 10.00 Fair CLR 77 64.4 65% 79 30.05 0.0
06 09:15 S 12 10.00 Fair CLR 75.2 64.4 69% 77 30.05 0.0
06 08:55 S 9 10.00 Fair CLR 73.4 64.4 74% 30.05 0.0
06 08:35 S 8 10.00 Fair CLR 71.6 62.6 73% 30.04 0.0
06 07:55 SW 7 10.00 Fair CLR 69.8 62.6 78% 30.03 0.0
06 07:35 S 7 10.00 Fair CLR 68 62.6 83% 30.03 0.0
06 07:15 S 6 10.00 Fair CLR 66.2 60.8 83% 30.02 0.0
06 06:55 Calm 10.00 Fair CLR 66.2 59 78% 30.01 0.0
06 06:35 SW 5 10.00 Fair CLR 66.2 60.8 83% 30.02 0.0
06 06:15 Calm 10.00 Fair CLR 66.2 60.8 83% 30.01 0.0
06 05:55 S 3 10.00 Fair CLR 66.2 60.8 83% 30.01 0.0
06 05:35 S 5 10.00 Fair CLR 66.2 59 78% 30.01 0.0
06 05:15 S 5 10.00 Fair CLR 66.2 59 78% 30.01 0.0
06 04:55 S 5 10.00 Fair CLR 68 59 73% 30.01 0.0
06 04:35 S 5 10.00 Fair CLR 68 59 73% 30.01 0.0
06 04:15 S 6 10.00 Fair CLR 68 59 73% 30.01 0.0
06 03:55 SW 6 10.00 Fair CLR 68 59 73% 30.01 0.0
06 03:35 S 6 10.00 Fair CLR 68 59 73% 30 0.0
06 03:15 S 8 10.00 Fair CLR 68 59 73% 30 0.0
06 02:55 S 7 10.00 Fair CLR 68 59 73% 30.01 0.0
06 02:35 S 7 10.00 Fair CLR 68 60.8 78% 30.01 0.0
06 02:15 S 6 10.00 Fair CLR 68 60.8 78% 30.02 0.0
06 01:55 S 5 10.00 Fair CLR 68 60.8 78% 30.03 0.0
06 01:35 SW 6 10.00 Fair CLR 66.2 59 78% 30.03 0.0
06 01:15 S 5 10.00 Fair CLR 66.2 59 78% 30.03 0.0
06 00:55 Calm 10.00 Fair CLR 66.2 57.2 73% 30.04 0.0
06 00:35 S 3 10.00 Fair CLR 66.2 57.2 73% 30.04 0.0
06 00:15 S 6 10.00 Fair CLR 68 57.2 69% 30.04 0.0
05 23:55 S 5 10.00 Fair CLR 69.8 57.2 64% 30.04 0.0
05 23:35 S 5 10.00 Fair CLR 69.8 57.2 64% 30.04 0.0
05 23:15 S 6 10.00 Fair CLR 71.6 59 65% 30.04 0.0
05 22:55 S 7 10.00 Fair CLR 71.6 59 65% 30.03 0.0
05 22:35 SE 9 10.00 Fair CLR 71.6 57.2 61% 30.03 0.0
05 22:15 SE 12 10.00 Fair CLR 71.6 57.2 61% 30.02 0.0
05 21:55 SE 12 10.00 Fair CLR 71.6 57.2 61% 30.02 0.0
05 21:35 SE 10 10.00 Fair CLR 71.6 57.2 61% 30.02 0.0
05 21:15 SE 10 10.00 Fair CLR 71.6 57.2 61% 30.01 0.0
05 20:55 SE 10 10.00 Fair CLR 71.6 57.2 61% 30.01 0.0
05 20:35 SE 10 10.00 Fair CLR 71.6 57.2 61% 30.01 0.0
05 20:15 SE 10 10.00 Fair CLR 71.6 57.2 61% 30.01 0.0
05 19:55 SE 9 10.00 Fair CLR 71.6 57.2 61% 30 0.0
05 19:35 SE 10 10.00 Fair CLR 73.4 57.2 57% 30.01 0.0
05 19:15 SE 13 10.00 Fair CLR 73.4 59 61% 30 0.0
05 18:55 SE 12 10.00 Fair CLR 73.4 59 61% 30 0.0
05 18:35 SE 12 10.00 Fair CLR 75.2 59 57% 78 30.01 0.0
05 18:15 SE 13 G 18 7.00 Fair CLR 75.2 59 57% 78 30 0.0
05 17:55 SE 12 G 17 10.00 Fair CLR 75.2 59 57% 78 30.01 0.0
05 17:35 SE 12 10.00 Fair CLR 77 59 54% 79 30.01 0.0
05 17:15 SE 12 10.00 Fair CLR 77 59 54% 79 30.01 0.0
05 16:55 SE 13 10.00 Fair CLR 77 59 54% 79 30.01 0.0
05 16:35 SE 12 10.00 Fair CLR 75.2 57.2 54% 78 30.02 0.0
05 16:15 SE 14 10.00 Fair CLR 77 57.2 51% 79 30.03 0.0
05 15:55 SE 13 G 17 10.00 Fair CLR 77 57.2 51% 79 30.03 0.0
05 15:35 SE 14 10.00 Fair CLR 77 55.4 47% 79 30.03 0.0
05 15:15 E 15 7.00 Fair CLR 77 59 54% 79 30.04 0.0
05 14:55 SE 13 10.00 Fair CLR 77 59 54% 79 30.04 0.0
05 14:35 SE 14 10.00 Fair CLR 77 57.2 51% 79 30.05 0.0
05 14:15 SE 12 10.00 Fair CLR 77 59 54% 79 30.05 0.0
05 13:55 SE 14 5.00 Fair with Haze CLR 77 59 54% 79 30.06 0.0
05 13:35 SE 13 10.00 Fair CLR 77 59 54% 79 30.06 0.0
05 13:15 SE 12 10.00 Fair CLR 75.2 57.2 54% 78 30.06 0.0
05 12:55 SE 12 10.00 Fair CLR 77 59 54% 79 30.07 0.0
05 12:35 SE 10 10.00 Fair CLR 77 59 54% 79 30.07 0.0
05 12:15 SE 10 10.00 Fair CLR 75.2 59 57% 78 30.07 0.0
05 11:55 E 10 10.00 Fair CLR 77 59 54% 79 30.07 0.0
05 11:15 SE 8 10.00 Fair CLR 77 57.2 51% 79 30.07 0.0
05 10:55 SE 10 10.00 Fair CLR 75.2 59 57% 78 30.07 0.0
05 10:35 SE 10 10.00 Fair CLR 75.2 59 57% 78 30.07 0.0
05 10:15 SE 8 10.00 Fair CLR 75.2 59 57% 78 30.06 0.0
05 09:55 S 8 10.00 Fair CLR 75.2 57.2 54% 78 30.07 0.0
05 09:35 SE 8 10.00 Fair CLR 75.2 57.2 54% 78 30.06 0.0
05 09:15 SE 10 10.00 Fair CLR 73.4 57.2 57% 30.05 0.0
05 08:55 SE 9 10.00 Fair CLR 73.4 59 61% 30.05 0.0
05 08:35 SE 7 10.00 Fair CLR 73.4 59 61% 30.05 0.0
05 08:15 Calm 10.00 Fair CLR 69.8 60.8 73% 30.04 0.0
05 07:55 Calm 10.00 Fair CLR 66.2 59 78% 30.04 0.0
05 07:35 Calm 10.00 Fair CLR 62.6 57.2 83% 30.04 0.0
05 07:15 Calm 10.00 Fair CLR 60.8 55.4 83% 30.03 0.0
05 06:55 Calm 10.00 Fair CLR 59 55.4 88% 30.02 0.0
05 06:35 Calm 10.00 Fair CLR 59 53.6 82% 30.02 0.0
05 06:15 Calm 10.00 Fair CLR 59 53.6 82% 30.02 0.0
05 05:55 Calm 10.00 Fair CLR 59 53.6 82% 30.01 0.0
05 05:35 Calm 10.00 Fair CLR 60.8 53.6 77% 30.01 0.0
05 05:15 Calm 10.00 Fair CLR 60.8 53.6 77% 30 0.0
05 04:55 Calm 10.00 Fair CLR 62.6 53.6 73% 30 0.0
05 04:35 Calm 10.00 Fair CLR 62.6 53.6 73% 30 0.0
05 04:15 Calm 10.00 Fair CLR 60.8 53.6 77% 29.99 0.0
05 03:55 Calm 10.00 Fair CLR 64.4 55.4 73% 30 0.0
05 03:35 Calm 10.00 Fair CLR 64.4 53.6 68% 30 0.0
05 03:15 Calm 10.00 Fair CLR 62.6 53.6 73% 30.01 0.0
05 02:55 S 3 10.00 Fair CLR 64.4 53.6 68% 30.01 0.0
05 02:35 Calm 10.00 Fair CLR 62.6 53.6 73% 30.02 0.0
05 02:15 S 5 10.00 Fair CLR 66.2 53.6 64% 30.03 0.0
05 01:55 SE 3 10.00 Fair CLR 66.2 53.6 64% 30.03 0.0
05 01:35 SE 6 10.00 Fair CLR 66.2 53.6 64% 30.04 0.0
05 01:15 SE 7 10.00 Fair CLR 68 53.6 60% 30.04 0.0
05 00:55 SE 8 10.00 Fair CLR 68 53.6 60% 30.05 0.0
05 00:35 SE 9 10.00 Fair CLR 69.8 53.6 57% 30.05 0.0
05 00:15 SE 9 10.00 Fair CLR 69.8 53.6 57% 30.05 0.0
04 23:55 SE 8 10.00 Fair CLR 69.8 53.6 57% 30.05 0.0
04 23:35 SE 12 10.00 Fair CLR 69.8 53.6 57% 30.05 0.0
04 23:15 SE 12 10.00 Fair CLR 69.8 53.6 57% 30.05 0.0
04 22:55 SE 10 10.00 Fair CLR 69.8 53.6 57% 30.05 0.0
04 22:35 SE 12 10.00 Fair CLR 69.8 55.4 60% 30.05 0.0
Date Time (edt) Wind (mph) Vis. (mi.) Weather Sky Cond. Air Dwpt Max. Min. Relative Humidity Wind Chill (°F) Heat Index (°F) altimeter (in) sea level (mb) 1 hr 3 hr 6 hr
6 hour
Temperature (ºF) Pressure Precipitation (in)